createdAt,value
2023-03-11T00:02:07.617Z,4.1
2023-03-11T00:07:07.609Z,4
2023-03-11T00:12:07.580Z,4
2023-03-11T00:17:07.573Z,4
2023-03-11T00:22:07.546Z,3.9
2023-03-11T00:27:07.525Z,3.8
2023-03-11T00:32:07.514Z,3.8
2023-03-11T00:37:07.496Z,3.8
2023-03-11T00:42:07.468Z,3.7
2023-03-11T00:47:07.471Z,3.7
2023-03-11T00:52:07.478Z,3.6
2023-03-11T00:57:07.421Z,3.6
2023-03-11T01:02:07.398Z,3.5
2023-03-11T01:07:07.377Z,3.5
2023-03-11T01:12:07.372Z,3.4
2023-03-11T01:17:07.355Z,3.4
2023-03-11T01:22:07.332Z,3.3
2023-03-11T01:27:07.316Z,3.2
2023-03-11T01:32:07.293Z,3.2
2023-03-11T01:37:07.277Z,3.1
2023-03-11T01:42:07.263Z,3.1
2023-03-11T01:47:07.243Z,3.1
2023-03-11T01:52:07.221Z,3
2023-03-11T01:57:07.211Z,2.9
2023-03-11T02:02:07.197Z,2.9
2023-03-11T02:07:07.187Z,2.9
2023-03-11T02:12:07.172Z,2.9
2023-03-11T02:17:07.156Z,2.8
2023-03-11T02:22:07.129Z,2.8
2023-03-11T02:27:07.118Z,2.7
2023-03-11T02:32:07.090Z,2.7
2023-03-11T02:37:07.077Z,2.6
2023-03-11T02:42:07.065Z,2.6
2023-03-11T02:47:07.039Z,2.6
2023-03-11T02:52:07.068Z,2.5
2023-03-11T02:57:06.997Z,2.5
2023-03-11T03:02:06.977Z,2.4
2023-03-11T03:07:06.971Z,2.4
2023-03-11T03:12:06.948Z,2.4
2023-03-11T03:17:06.932Z,2.3
2023-03-11T03:22:06.911Z,2.2
2023-03-11T03:27:06.908Z,2.1
2023-03-11T03:32:06.883Z,2
2023-03-11T03:37:06.883Z,2
2023-03-11T03:42:06.844Z,1.9
2023-03-11T03:47:06.841Z,1.8
2023-03-11T03:52:06.818Z,1.7
2023-03-11T03:57:06.799Z,1.6
2023-03-11T04:02:06.796Z,1.6
2023-03-11T04:07:06.762Z,1.5
2023-03-11T04:12:06.763Z,1.4
2023-03-11T04:17:06.733Z,1.3
2023-03-11T04:22:06.728Z,1.2
2023-03-11T04:27:06.711Z,1
2023-03-11T04:32:06.698Z,1
2023-03-11T04:37:06.701Z,0.9
2023-03-11T04:42:06.646Z,0.8
2023-03-11T04:47:06.637Z,0.8
2023-03-11T04:52:06.617Z,0.7
2023-03-11T04:57:06.618Z,0.7
2023-03-11T05:02:06.604Z,0.7
2023-03-11T05:07:06.575Z,0.6
2023-03-11T05:12:06.566Z,0.6
2023-03-11T05:17:06.549Z,0.6
2023-03-11T05:22:06.522Z,0.5
2023-03-11T05:27:06.516Z,0.6
2023-03-11T05:32:06.491Z,0.5
2023-03-11T05:37:06.482Z,0.5
2023-03-11T05:42:06.455Z,0.5
2023-03-11T05:47:06.455Z,0.5
2023-03-11T05:52:06.430Z,0.4
2023-03-11T05:57:06.410Z,0.4
2023-03-11T06:02:06.389Z,0.5
2023-03-11T06:07:06.382Z,0.5
2023-03-11T06:12:06.384Z,0.6
2023-03-11T06:17:06.348Z,0.6
2023-03-11T06:22:06.341Z,0.7
2023-03-11T06:27:06.314Z,0.7
2023-03-11T06:32:06.328Z,0.8
2023-03-11T06:37:06.300Z,0.9
2023-03-11T06:42:06.262Z,1
2023-03-11T06:47:06.249Z,1.1
2023-03-11T06:52:06.231Z,1.2
2023-03-11T06:57:06.221Z,1.2
2023-03-11T07:02:06.188Z,1.3
2023-03-11T07:07:06.184Z,1.3
2023-03-11T07:12:06.160Z,1.3
2023-03-11T07:17:06.144Z,1.4
2023-03-11T07:22:06.127Z,1.5
2023-03-11T07:27:06.125Z,1.6
2023-03-11T07:32:06.128Z,1.7
2023-03-11T07:37:06.077Z,1.8
2023-03-11T07:42:06.060Z,2
2023-03-11T07:47:06.041Z,2.1
2023-03-11T07:52:06.026Z,2.3
2023-03-11T07:57:06.042Z,2.5
2023-03-11T08:02:06.026Z,2.6
2023-03-11T08:07:05.980Z,2.8
2023-03-11T08:12:05.970Z,2.8
2023-03-11T08:17:05.945Z,2.9
2023-03-11T08:22:05.971Z,2.9
2023-03-11T08:27:05.914Z,3
2023-03-11T08:32:05.892Z,3.2
2023-03-11T08:37:05.894Z,3.4
2023-03-11T08:42:06.018Z,3.5
2023-03-11T08:47:05.844Z,3.8
2023-03-11T08:52:05.879Z,4
2023-03-11T08:57:05.805Z,4.5
2023-03-11T09:02:05.809Z,5.1
2023-03-11T09:07:05.778Z,5.9
2023-03-11T09:12:05.749Z,6.1
2023-03-11T09:17:05.727Z,7.1
2023-03-11T09:22:05.698Z,8.9
2023-03-11T09:27:05.720Z,10.8
2023-03-11T09:32:05.689Z,11.9
2023-03-11T09:37:05.653Z,12.7
2023-03-11T09:42:05.624Z,11.9
2023-03-11T09:47:05.606Z,10.7
2023-03-11T09:52:05.576Z,9.4
2023-03-11T09:57:05.552Z,8.7
2023-03-11T10:02:05.540Z,7.9
2023-03-11T10:07:05.519Z,7.8
2023-03-11T10:12:05.501Z,9.8
2023-03-11T10:17:05.474Z,11.6
2023-03-11T10:22:05.471Z,12.8
2023-03-11T10:27:05.444Z,13.2
2023-03-11T10:32:05.424Z,13.1
2023-03-11T10:37:05.405Z,12.6
2023-03-11T10:42:05.375Z,12.1
2023-03-11T10:47:05.356Z,12.3
2023-03-11T10:52:05.338Z,12.6
2023-03-11T10:57:05.320Z,13.3
2023-03-11T11:02:05.294Z,13.7
2023-03-11T11:07:05.302Z,14.4
2023-03-11T11:12:05.259Z,14.2
2023-03-11T11:17:05.236Z,14.3
2023-03-11T11:22:05.213Z,14.4
2023-03-11T11:27:05.248Z,13.9
2023-03-11T11:32:05.175Z,14.1
2023-03-11T11:37:05.148Z,14
2023-03-11T11:42:05.132Z,14.1
2023-03-11T11:47:05.133Z,14
2023-03-11T11:52:05.090Z,14.2
2023-03-11T11:57:05.096Z,14.4
2023-03-11T12:02:05.059Z,13.9
2023-03-11T12:07:05.033Z,14.3
2023-03-11T12:12:05.014Z,14.6
2023-03-11T12:17:04.994Z,14.6
2023-03-11T12:22:04.959Z,14.7
2023-03-11T12:27:04.955Z,14.7
2023-03-11T12:32:04.917Z,14.4
2023-03-11T12:37:04.906Z,14.3
2023-03-11T12:42:04.892Z,14.1
2023-03-11T12:47:04.869Z,14.1
2023-03-11T12:52:04.867Z,14.4
2023-03-11T12:57:04.822Z,14.5
2023-03-11T13:02:04.792Z,14
2023-03-11T13:07:04.809Z,14
2023-03-11T13:12:04.759Z,13.6
2023-03-11T13:17:04.741Z,13.1
2023-03-11T13:22:04.722Z,12.2
2023-03-11T13:27:04.704Z,11.6
2023-03-11T13:32:04.682Z,11
2023-03-11T13:37:04.670Z,10.6
2023-03-11T13:42:04.649Z,10.4
2023-03-11T13:47:04.617Z,10
2023-03-11T13:52:04.615Z,9.5
2023-03-11T13:57:04.723Z,9.5
2023-03-11T14:02:04.576Z,9.3
2023-03-11T14:07:04.601Z,9
2023-03-11T14:12:04.524Z,9
2023-03-11T14:17:04.545Z,8.8
2023-03-11T14:22:04.475Z,8.6
2023-03-11T14:27:04.467Z,8.6
2023-03-11T14:32:04.448Z,8.5
2023-03-11T14:37:04.427Z,8.5
2023-03-11T14:42:04.407Z,8.4
2023-03-11T14:47:04.511Z,8.3
2023-03-11T14:52:04.364Z,8.3
2023-03-11T14:57:04.342Z,8.3
2023-03-11T15:02:04.352Z,8.2
2023-03-11T15:07:04.581Z,8.2
2023-03-11T15:12:04.301Z,8.1
2023-03-11T15:17:04.272Z,8
2023-03-11T15:22:04.325Z,7.9
2023-03-11T15:27:04.230Z,7.9
2023-03-11T15:32:04.242Z,7.8
2023-03-11T15:37:04.222Z,7.7
2023-03-11T15:42:04.193Z,7.7
2023-03-11T15:47:04.156Z,7.6
2023-03-11T15:52:04.147Z,7.5
2023-03-11T15:57:04.111Z,7.5
2023-03-11T16:02:04.090Z,7.4
2023-03-11T16:07:04.079Z,7.3
2023-03-11T16:12:04.052Z,7.2
2023-03-11T16:17:04.050Z,7.2
2023-03-11T16:22:04.029Z,7.1
2023-03-11T16:27:03.988Z,7
2023-03-11T16:32:03.975Z,6.9
2023-03-11T16:37:03.953Z,6.9
2023-03-11T16:42:03.951Z,6.8
2023-03-11T16:47:03.924Z,6.7
2023-03-11T16:52:03.902Z,6.7
2023-03-11T16:57:04.040Z,6.7
2023-03-11T17:02:03.866Z,6.6
2023-03-11T17:07:03.849Z,6.5
2023-03-11T17:12:03.953Z,6.5
2023-03-11T17:17:03.840Z,6.4
2023-03-11T17:22:03.795Z,6.4
2023-03-11T17:27:03.792Z,6.3
2023-03-11T17:32:03.766Z,6.2
2023-03-11T17:37:03.760Z,6.2
2023-03-11T17:42:03.729Z,6.1
2023-03-11T17:47:03.719Z,6
2023-03-11T17:52:03.688Z,6
2023-03-11T17:57:03.757Z,5.9
2023-03-11T18:02:03.678Z,5.8
2023-03-11T18:07:03.735Z,5.8
2023-03-11T18:12:03.615Z,5.7
2023-03-11T18:17:03.592Z,5.6
2023-03-11T18:22:03.563Z,5.5
2023-03-11T18:27:03.549Z,5.4
2023-03-11T18:32:03.565Z,5.3
2023-03-11T18:37:03.518Z,5.3
2023-03-11T18:42:03.539Z,5.2
2023-03-11T18:47:03.476Z,5.1
2023-03-11T18:52:03.473Z,4.9
2023-03-11T18:57:03.459Z,4.9
2023-03-11T19:02:03.456Z,4.8
2023-03-11T19:07:03.433Z,4.7
2023-03-11T19:12:03.496Z,4.5
2023-03-11T19:17:03.374Z,4.4
2023-03-11T19:22:03.390Z,4.3
2023-03-11T19:27:03.341Z,4.1
2023-03-11T19:32:03.326Z,4
2023-03-11T19:37:03.408Z,3.8
2023-03-11T19:42:03.294Z,3.7
2023-03-11T19:47:03.339Z,3.5
2023-03-11T19:52:03.255Z,3.4
2023-03-11T19:57:03.237Z,3.3
2023-03-11T20:02:03.458Z,3.2
2023-03-11T20:07:03.211Z,3.1
2023-03-11T20:12:03.189Z,3
2023-03-11T20:17:03.341Z,3
2023-03-11T20:22:03.278Z,2.9
2023-03-11T20:27:03.271Z,2.9
2023-03-11T20:32:03.116Z,2.9
2023-03-11T20:37:03.228Z,2.8
2023-03-11T20:42:03.151Z,2.8
2023-03-11T20:47:03.159Z,2.7
2023-03-11T20:52:03.083Z,2.6
2023-03-11T20:57:03.123Z,2.6
2023-03-11T21:02:03.039Z,2.5
2023-03-11T21:07:03.069Z,2.4
2023-03-11T21:12:02.980Z,2.3
2023-03-11T21:17:02.958Z,2.3
2023-03-11T21:22:02.955Z,2.2
2023-03-11T21:27:02.939Z,2.1
2023-03-11T21:32:02.990Z,2
2023-03-11T21:37:02.896Z,2
2023-03-11T21:42:02.869Z,2
2023-03-11T21:47:02.905Z,1.9
2023-03-11T21:52:02.837Z,1.9
2023-03-11T21:57:02.835Z,1.8
2023-03-11T22:02:02.807Z,1.7
2023-03-11T22:07:02.796Z,1.7
2023-03-11T22:12:02.769Z,1.7
2023-03-11T22:17:02.751Z,1.7
2023-03-11T22:22:02.741Z,1.7
2023-03-11T22:27:02.722Z,1.8
2023-03-11T22:32:02.715Z,1.8
2023-03-11T22:37:02.766Z,1.9
2023-03-11T22:42:02.686Z,1.9
2023-03-11T22:47:02.665Z,1.9
2023-03-11T22:52:02.647Z,1.9
2023-03-11T22:57:02.624Z,1.9
2023-03-11T23:02:02.641Z,1.9
2023-03-11T23:07:02.610Z,1.9
2023-03-11T23:12:02.613Z,1.9
2023-03-11T23:17:02.556Z,1.9
2023-03-11T23:22:02.633Z,1.9
2023-03-11T23:27:02.533Z,2
2023-03-11T23:32:02.505Z,2
2023-03-11T23:37:02.519Z,2
2023-03-11T23:42:02.476Z,2
2023-03-11T23:47:02.755Z,2
2023-03-11T23:52:02.472Z,2
2023-03-11T23:57:02.423Z,2
